createdAt,value
2023-03-18T00:00:11.344Z,70.52
2023-03-18T00:02:39.480Z,70.76
2023-03-18T00:05:09.247Z,70.67
2023-03-18T00:07:36.202Z,70.75
2023-03-18T00:10:03.903Z,71.10
2023-03-18T00:12:31.220Z,71.19
2023-03-18T00:14:57.644Z,71.18
2023-03-18T00:17:23.981Z,71.26
2023-03-18T00:19:50.423Z,71.22
2023-03-18T00:22:17.237Z,71.43
2023-03-18T00:24:43.694Z,71.63
2023-03-18T00:27:10.139Z,71.67
2023-03-18T00:29:36.565Z,71.54
2023-03-18T00:32:03.363Z,71.47
2023-03-18T00:34:29.741Z,71.68
2023-03-18T00:36:59.016Z,71.60
2023-03-18T00:39:26.542Z,71.37
2023-03-18T00:41:56.777Z,71.72
2023-03-18T00:44:25.290Z,71.77
2023-03-18T00:46:52.217Z,71.64
2023-03-18T00:49:19.795Z,72.03
2023-03-18T00:51:46.659Z,71.79
2023-03-18T00:54:17.974Z,71.83
2023-03-18T00:56:44.681Z,72.03
2023-03-18T00:59:12.639Z,72.15
2023-03-18T01:01:39.492Z,72.21
2023-03-18T01:04:07.034Z,72.12
2023-03-18T01:06:35.636Z,72.33
2023-03-18T01:09:04.627Z,72.14
2023-03-18T01:11:31.317Z,72.14
2023-03-18T01:13:59.423Z,72.21
2023-03-18T01:16:26.516Z,71.93
2023-03-18T01:18:53.940Z,71.76
2023-03-18T01:21:21.231Z,71.28
2023-03-18T01:23:48.025Z,70.71
2023-03-18T01:26:14.623Z,69.99
2023-03-18T01:28:42.282Z,69.53
2023-03-18T01:31:09.161Z,69.22
2023-03-18T01:33:36.594Z,68.76
2023-03-18T01:36:04.962Z,68.64
2023-03-18T01:38:32.215Z,68.30
2023-03-18T01:41:00.273Z,68.04
2023-03-18T01:43:36.453Z,67.65
2023-03-18T01:46:28.945Z,67.41
2023-03-18T01:48:55.445Z,67.04
2023-03-18T01:51:22.559Z,66.80
2023-03-18T01:53:50.384Z,66.31
2023-03-18T01:56:18.592Z,66.17
2023-03-18T01:58:48.025Z,65.82
2023-03-18T02:01:34.703Z,65.55
2023-03-18T02:04:04.462Z,65.27
2023-03-18T02:06:30.975Z,65.00
2023-03-18T02:08:57.714Z,64.66
2023-03-18T02:13:50.549Z,64.58
2023-03-18T02:16:27.787Z,64.14
2023-03-18T02:19:11.045Z,63.94
2023-03-18T02:21:43.785Z,63.77
2023-03-18T02:24:28.823Z,63.77
2023-03-18T02:27:12.677Z,63.37
2023-03-18T02:29:42.260Z,63.29
2023-03-18T02:32:09.492Z,63.28
2023-03-18T02:34:38.256Z,63.14
2023-03-18T02:37:07.754Z,63.04
2023-03-18T02:39:35.614Z,63.01
2023-03-18T02:42:02.377Z,62.90
2023-03-18T02:44:29.081Z,62.93
2023-03-18T02:46:57.735Z,62.59
2023-03-18T02:49:26.252Z,62.52
2023-03-18T02:51:52.680Z,62.58
2023-03-18T02:54:24.935Z,62.67
2023-03-18T02:56:51.917Z,62.75
2023-03-18T02:59:19.795Z,62.58
2023-03-18T03:01:48.830Z,62.74
2023-03-18T03:04:17.240Z,62.71
2023-03-18T03:06:44.658Z,62.94
2023-03-18T03:09:15.296Z,62.89
2023-03-18T03:11:44.019Z,62.80
2023-03-18T03:14:11.268Z,62.68
2023-03-18T03:16:37.808Z,62.69
2023-03-18T03:19:05.790Z,62.71
2023-03-18T03:21:33.485Z,62.83
2023-03-18T03:23:59.950Z,62.78
2023-03-18T03:26:27.103Z,62.77
2023-03-18T03:28:53.575Z,62.94
2023-03-18T03:31:20.077Z,62.94
2023-03-18T03:33:46.496Z,63.00
2023-03-18T03:36:15.694Z,63.20
2023-03-18T03:38:43.478Z,63.33
2023-03-18T03:41:11.585Z,63.31
2023-03-18T03:43:39.477Z,63.56
2023-03-18T03:46:07.453Z,63.56
2023-03-18T03:48:34.105Z,63.78
2023-03-18T03:51:00.534Z,63.81
2023-03-18T03:53:26.947Z,63.97
2023-03-18T03:55:54.533Z,64.19
2023-03-18T03:58:21.363Z,64.04
2023-03-18T04:00:47.820Z,64.26
2023-03-18T04:03:14.536Z,64.40
2023-03-18T04:05:41.667Z,64.44
2023-03-18T04:08:08.164Z,64.39
2023-03-18T04:10:36.618Z,64.71
2023-03-18T04:13:04.463Z,64.89
2023-03-18T04:15:31.101Z,65.04
2023-03-18T04:17:57.520Z,65.01
2023-03-18T04:20:23.882Z,65.22
2023-03-18T04:22:50.328Z,65.39
2023-03-18T04:25:16.936Z,65.51
2023-03-18T04:27:43.480Z,65.72
2023-03-18T04:30:11.226Z,65.76
2023-03-18T04:32:37.719Z,65.72
2023-03-18T04:35:04.481Z,65.98
2023-03-18T04:37:30.981Z,66.10
2023-03-18T04:39:58.402Z,66.25
2023-03-18T04:42:25.142Z,66.37
2023-03-18T04:44:52.312Z,66.60
2023-03-18T04:47:19.469Z,66.71
2023-03-18T04:49:45.846Z,66.79
2023-03-18T04:52:12.454Z,67.01
2023-03-18T04:54:39.664Z,66.84
2023-03-18T04:57:06.700Z,67.10
2023-03-18T04:59:33.390Z,67.10
2023-03-18T05:02:00.088Z,67.23
2023-03-18T05:04:27.348Z,67.37
2023-03-18T05:06:53.957Z,67.55
2023-03-18T05:09:20.403Z,67.84
2023-03-18T05:11:46.784Z,67.85
2023-03-18T05:14:13.769Z,68.00
2023-03-18T05:16:40.337Z,67.88
2023-03-18T05:19:06.843Z,68.25
2023-03-18T05:21:33.407Z,68.27
2023-03-18T05:23:59.882Z,68.64
2023-03-18T05:26:26.237Z,68.42
2023-03-18T05:28:53.614Z,68.38
2023-03-18T05:31:20.521Z,68.78
2023-03-18T05:33:47.824Z,68.79
2023-03-18T05:36:14.622Z,68.91
2023-03-18T05:38:41.114Z,69.04
2023-03-18T05:41:08.158Z,68.99
2023-03-18T05:43:34.622Z,68.92
2023-03-18T05:46:01.151Z,69.37
2023-03-18T05:48:27.830Z,69.27
2023-03-18T05:50:54.285Z,69.18
2023-03-18T05:53:21.128Z,69.37
2023-03-18T05:55:48.731Z,69.15
2023-03-18T05:58:15.327Z,69.66
2023-03-18T06:00:41.894Z,69.64
2023-03-18T06:03:08.890Z,69.59
2023-03-18T06:05:35.987Z,69.56
2023-03-18T06:08:03.087Z,69.87
2023-03-18T06:10:29.687Z,69.92
2023-03-18T06:12:56.130Z,69.86
2023-03-18T06:15:22.940Z,69.86
2023-03-18T06:17:49.494Z,69.91
2023-03-18T06:20:18.577Z,70.10
2023-03-18T06:22:49.441Z,69.96
2023-03-18T06:25:21.222Z,70.12
2023-03-18T06:27:47.993Z,70.20
2023-03-18T06:30:16.092Z,70.09
2023-03-18T06:32:44.025Z,70.07
2023-03-18T06:35:11.945Z,69.74
2023-03-18T06:37:39.965Z,69.87
2023-03-18T06:40:07.980Z,70.03
2023-03-18T06:42:34.628Z,69.71
2023-03-18T06:45:01.499Z,69.92
2023-03-18T06:47:28.459Z,70.10
2023-03-18T06:49:56.345Z,70.01
2023-03-18T06:52:23.385Z,69.95
2023-03-18T06:54:50.465Z,69.81
2023-03-18T06:57:17.021Z,70.07
2023-03-18T06:59:43.608Z,69.85
2023-03-18T07:02:11.045Z,69.91
2023-03-18T07:04:37.697Z,69.79
2023-03-18T07:07:05.830Z,69.80
2023-03-18T07:09:33.376Z,69.74
2023-03-18T07:12:00.878Z,69.64
2023-03-18T07:14:28.382Z,69.18
2023-03-18T07:16:55.960Z,69.14
2023-03-18T07:19:22.892Z,69.04
2023-03-18T07:21:49.538Z,68.74
2023-03-18T07:24:17.257Z,68.39
2023-03-18T07:26:44.110Z,68.38
2023-03-18T07:29:10.548Z,68.53
2023-03-18T07:31:37.140Z,68.19
2023-03-18T07:34:04.814Z,67.85
2023-03-18T07:36:31.824Z,67.64
2023-03-18T07:38:59.892Z,67.58
2023-03-18T07:41:26.682Z,67.18
2023-03-18T07:43:53.648Z,67.23
2023-03-18T07:46:20.274Z,66.82
2023-03-18T07:48:46.839Z,66.67
2023-03-18T07:51:15.253Z,66.48
2023-03-18T07:53:42.826Z,66.27
2023-03-18T07:56:09.964Z,65.94
2023-03-18T07:58:37.550Z,65.91
2023-03-18T08:01:04.981Z,65.66
2023-03-18T08:03:31.881Z,65.51
2023-03-18T08:05:58.279Z,65.23
2023-03-18T08:08:25.375Z,65.05
2023-03-18T08:10:52.277Z,65.03
2023-03-18T08:13:18.654Z,64.78
2023-03-18T08:15:45.085Z,64.56
2023-03-18T08:18:11.511Z,64.36
2023-03-18T08:20:38.350Z,64.34
2023-03-18T08:23:04.790Z,63.90
2023-03-18T08:25:31.709Z,63.75
2023-03-18T08:27:58.579Z,63.44
2023-03-18T08:30:28.499Z,63.07
2023-03-18T08:32:56.102Z,62.90
2023-03-18T08:35:23.465Z,62.32
2023-03-18T08:37:51.158Z,61.95
2023-03-18T08:40:18.072Z,61.51
2023-03-18T08:42:45.176Z,61.26
2023-03-18T08:45:12.425Z,60.73
2023-03-18T08:47:39.638Z,60.57
2023-03-18T08:50:06.420Z,60.10
2023-03-18T08:52:32.840Z,59.73
2023-03-18T08:54:59.629Z,59.33
2023-03-18T08:57:27.808Z,58.77
2023-03-18T08:59:54.344Z,58.82
2023-03-18T09:02:21.617Z,58.37
2023-03-18T09:04:48.178Z,57.82
2023-03-18T09:07:14.781Z,57.43
2023-03-18T09:09:43.828Z,57.14
2023-03-18T09:12:16.533Z,56.54
2023-03-18T09:14:43.988Z,56.03
2023-03-18T09:17:10.761Z,55.61
2023-03-18T09:19:37.455Z,55.33
2023-03-18T09:22:04.074Z,54.70
2023-03-18T09:24:30.460Z,54.17
2023-03-18T09:26:59.663Z,53.71
2023-03-18T09:29:27.555Z,53.08
2023-03-18T09:31:54.239Z,52.83
2023-03-18T09:34:20.689Z,52.05
2023-03-18T09:36:51.065Z,51.54
2023-03-18T09:39:21.163Z,51.09
2023-03-18T09:42:11.194Z,50.67
2023-03-18T09:44:38.637Z,50.14
2023-03-18T09:47:27.619Z,49.55
2023-03-18T09:50:32.490Z,49.30
2023-03-18T09:53:21.428Z,49.30
2023-03-18T09:55:55.668Z,48.78
2023-03-18T09:58:24.968Z,48.52
2023-03-18T10:00:57.047Z,48.14
2023-03-18T10:03:36.091Z,47.84
2023-03-18T10:06:19.546Z,47.66
2023-03-18T10:08:51.950Z,47.49
2023-03-18T10:11:22.184Z,47.12
2023-03-18T10:14:10.374Z,46.76
2023-03-18T10:17:12.135Z,46.63
2023-03-18T10:19:46.457Z,46.29
2023-03-18T10:22:42.289Z,45.84
2023-03-18T10:25:33.695Z,45.54
2023-03-18T10:28:12.368Z,45.71
2023-03-18T10:31:16.463Z,45.69
2023-03-18T10:34:03.693Z,45.61
2023-03-18T10:37:01.492Z,45.73
2023-03-18T10:39:29.423Z,45.19
2023-03-18T10:42:01.108Z,45.00
2023-03-18T10:44:36.070Z,44.83
2023-03-18T10:47:23.552Z,44.71
2023-03-18T10:50:13.518Z,44.16
2023-03-18T10:53:05.985Z,44.06
2023-03-18T10:55:40.219Z,43.85
2023-03-18T10:58:16.168Z,43.83
2023-03-18T11:00:44.282Z,44.02
2023-03-18T11:03:35.017Z,44.10
2023-03-18T11:06:04.708Z,44.10
2023-03-18T11:08:39.962Z,44.29
2023-03-18T11:11:32.847Z,44.51
2023-03-18T11:14:01.814Z,44.34
2023-03-18T11:16:57.682Z,44.12
2023-03-18T11:19:41.494Z,43.55
2023-03-18T11:22:08.011Z,43.25
2023-03-18T11:24:42.688Z,42.81
2023-03-18T11:27:18.000Z,42.42
2023-03-18T11:29:50.577Z,42.18
2023-03-18T11:32:32.173Z,42.20
2023-03-18T11:35:02.997Z,41.88
2023-03-18T11:37:32.850Z,41.88
2023-03-18T11:40:14.199Z,41.17
2023-03-18T11:42:42.373Z,40.90
2023-03-18T11:45:39.844Z,40.57
2023-03-18T11:48:14.870Z,40.63
2023-03-18T11:51:17.496Z,40.07
2023-03-18T11:53:52.523Z,40.36
2023-03-18T11:56:30.954Z,40.41
2023-03-18T11:59:19.324Z,39.99
2023-03-18T12:01:45.745Z,39.56
2023-03-18T12:04:30.128Z,39.34
2023-03-18T12:07:11.535Z,38.87
2023-03-18T12:09:47.321Z,38.69
2023-03-18T12:12:31.981Z,38.62
2023-03-18T12:15:20.804Z,37.79
2023-03-18T12:18:06.752Z,37.78
2023-03-18T12:20:40.516Z,37.95
2023-03-18T12:23:19.439Z,37.67
2023-03-18T12:26:00.784Z,37.82
2023-03-18T12:28:49.394Z,37.45
2023-03-18T12:31:35.656Z,37.18
2023-03-18T12:34:04.255Z,37.03
2023-03-18T12:37:08.055Z,36.80
2023-03-18T12:39:45.560Z,36.95
2023-03-18T12:42:17.972Z,37.10
2023-03-18T12:45:02.226Z,36.95
2023-03-18T12:47:42.103Z,36.88
2023-03-18T12:50:19.428Z,37.07
2023-03-18T12:52:56.503Z,36.55
2023-03-18T12:55:29.286Z,36.39
2023-03-18T12:58:01.475Z,36.12
2023-03-18T13:00:34.688Z,36.25
2023-03-18T13:03:34.364Z,35.76
2023-03-18T13:06:10.150Z,35.88
2023-03-18T13:08:36.583Z,36.21
2023-03-18T13:11:48.875Z,35.60
2023-03-18T13:14:24.158Z,35.48
2023-03-18T13:16:53.187Z,35.20
2023-03-18T13:19:19.714Z,35.32
2023-03-18T13:21:56.851Z,34.86
2023-03-18T13:24:40.433Z,34.43
2023-03-18T13:27:44.589Z,34.65
2023-03-18T13:30:24.637Z,34.62
2023-03-18T13:33:07.993Z,34.62
2023-03-18T13:35:53.175Z,34.62
2023-03-18T13:38:32.361Z,35.01
2023-03-18T13:41:35.004Z,34.54
2023-03-18T13:44:09.343Z,34.87
2023-03-18T13:46:35.930Z,35.09
2023-03-18T13:49:03.403Z,35.33
2023-03-18T13:51:29.826Z,35.62
2023-03-18T13:54:00.083Z,35.70
2023-03-18T13:56:40.303Z,35.55
2023-03-18T13:59:07.651Z,35.47
2023-03-18T14:02:04.432Z,35.73
2023-03-18T14:04:45.789Z,35.62
2023-03-18T14:07:12.597Z,35.38
2023-03-18T14:10:02.528Z,35.21
2023-03-18T14:12:35.021Z,35.41
2023-03-18T14:15:14.468Z,35.27
2023-03-18T14:17:46.986Z,35.65
2023-03-18T14:20:21.279Z,35.65
2023-03-18T14:22:51.178Z,36.04
2023-03-18T14:25:17.683Z,36.33
2023-03-18T14:27:57.930Z,36.36
2023-03-18T14:30:43.764Z,36.75
2023-03-18T14:33:12.966Z,36.46
2023-03-18T14:35:54.623Z,36.54
2023-03-18T14:38:23.154Z,36.51
2023-03-18T14:40:52.744Z,36.50
2023-03-18T14:43:27.350Z,36.33
2023-03-18T14:45:58.892Z,35.81
2023-03-18T14:48:35.300Z,35.64
2023-03-18T14:51:17.099Z,35.45
2023-03-18T14:54:11.070Z,34.91
2023-03-18T14:56:41.968Z,34.73
2023-03-18T14:59:17.379Z,34.55
2023-03-18T15:01:50.743Z,34.52
2023-03-18T15:04:22.370Z,34.39
2023-03-18T15:06:50.147Z,34.47
2023-03-18T15:09:26.171Z,34.28
2023-03-18T15:11:54.587Z,34.19
2023-03-18T15:14:30.857Z,34.33
2023-03-18T15:17:05.660Z,34.48
2023-03-18T15:19:39.564Z,34.61
2023-03-18T15:22:15.648Z,34.41
2023-03-18T15:24:47.655Z,34.47
2023-03-18T15:27:22.738Z,34.68
2023-03-18T15:30:06.779Z,34.92
2023-03-18T15:32:47.819Z,34.55
2023-03-18T15:35:23.082Z,34.26
2023-03-18T15:38:19.630Z,33.84
2023-03-18T15:40:53.345Z,34.31
2023-03-18T15:43:40.162Z,34.70
2023-03-18T15:46:26.752Z,35.05
2023-03-18T15:49:00.114Z,35.50
2023-03-18T15:51:58.851Z,35.88
2023-03-18T15:55:03.178Z,36.36
2023-03-18T16:08:31.606Z,38.63
2023-03-18T16:14:07.968Z,39.73
2023-03-18T16:17:00.448Z,40.09
2023-03-18T16:19:28.756Z,40.39
2023-03-18T16:21:57.127Z,40.77
2023-03-18T16:24:24.786Z,40.95
2023-03-18T16:26:52.999Z,41.62
2023-03-18T16:29:38.215Z,41.72
2023-03-18T16:32:05.219Z,41.87
2023-03-18T16:34:32.172Z,42.35
2023-03-18T16:36:59.885Z,42.43
2023-03-18T16:39:33.772Z,42.68
2023-03-18T16:42:01.170Z,43.14
2023-03-18T16:44:27.703Z,43.39
2023-03-18T16:46:56.446Z,43.58
2023-03-18T16:49:27.050Z,44.01
2023-03-18T16:51:53.876Z,44.17
2023-03-18T16:54:28.589Z,44.43
2023-03-18T16:56:58.148Z,44.68
2023-03-18T16:59:29.480Z,44.95
2023-03-18T17:01:56.234Z,45.35
2023-03-18T17:04:28.565Z,45.44
2023-03-18T17:06:56.466Z,45.57
2023-03-18T17:09:24.899Z,45.87
2023-03-18T17:11:54.050Z,46.16
2023-03-18T17:14:36.046Z,46.34
2023-03-18T17:17:06.276Z,46.63
2023-03-18T17:19:32.926Z,46.72
2023-03-18T17:21:59.453Z,47.08
2023-03-18T17:24:26.226Z,47.13
2023-03-18T17:26:53.302Z,47.44
2023-03-18T17:29:28.029Z,47.25
2023-03-18T17:31:55.706Z,47.56
2023-03-18T17:34:23.822Z,47.52
2023-03-18T17:36:50.291Z,47.69
2023-03-18T17:39:16.937Z,47.90
2023-03-18T17:41:43.908Z,48.00
2023-03-18T17:44:25.793Z,48.25
2023-03-18T17:46:54.004Z,48.45
2023-03-18T17:49:24.058Z,48.52
2023-03-18T17:51:50.980Z,48.72
2023-03-18T17:54:21.305Z,48.78
2023-03-18T17:56:49.713Z,49.01
2023-03-18T17:59:19.435Z,49.15
2023-03-18T18:01:49.388Z,49.05
2023-03-18T18:04:18.902Z,49.19
2023-03-18T18:06:48.101Z,49.20
2023-03-18T18:09:15.753Z,49.58
2023-03-18T18:11:45.153Z,49.66
2023-03-18T18:14:26.298Z,49.76
2023-03-18T18:16:53.844Z,49.94
2023-03-18T18:19:20.509Z,50.08
2023-03-18T18:21:48.987Z,50.05
2023-03-18T18:24:33.605Z,50.14
2023-03-18T18:27:00.159Z,50.37
2023-03-18T18:29:29.300Z,50.49
2023-03-18T18:31:57.150Z,50.64
2023-03-18T18:34:23.702Z,50.77
2023-03-18T18:36:51.041Z,50.60
2023-03-18T18:39:17.993Z,51.02
2023-03-18T18:41:46.365Z,51.10
2023-03-18T18:44:13.203Z,51.32
2023-03-18T18:46:40.620Z,51.50
2023-03-18T18:49:24.104Z,51.55
2023-03-18T18:51:56.272Z,51.74
2023-03-18T18:54:24.026Z,52.04
2023-03-18T18:56:51.158Z,52.24
2023-03-18T18:59:25.984Z,52.51
2023-03-18T19:01:53.374Z,52.53
2023-03-18T19:04:21.804Z,52.82
2023-03-18T19:06:52.537Z,52.99
2023-03-18T19:09:25.108Z,53.06
2023-03-18T19:11:53.253Z,53.37
2023-03-18T19:14:21.788Z,53.48
2023-03-18T19:16:48.939Z,53.70
2023-03-18T19:19:20.565Z,53.89
2023-03-18T19:21:47.212Z,54.23
2023-03-18T19:24:34.857Z,54.33
2023-03-18T19:27:04.113Z,54.69
2023-03-18T19:29:32.641Z,54.68
2023-03-18T19:32:01.305Z,54.94
2023-03-18T19:34:29.722Z,55.21
2023-03-18T19:36:56.606Z,55.25
2023-03-18T19:39:24.647Z,55.51
2023-03-18T19:41:51.496Z,55.60
2023-03-18T19:44:21.624Z,55.63
2023-03-18T19:46:49.758Z,55.62
2023-03-18T19:49:19.869Z,55.86
2023-03-18T19:51:47.003Z,56.08
2023-03-18T19:54:28.062Z,56.18
2023-03-18T19:56:56.348Z,56.16
2023-03-18T19:59:25.328Z,56.51
2023-03-18T20:01:51.766Z,56.68
2023-03-18T20:04:19.686Z,56.71
2023-03-18T20:06:47.445Z,56.81
2023-03-18T20:09:14.909Z,57.05
2023-03-18T20:11:41.498Z,57.03
2023-03-18T20:14:24.213Z,57.38
2023-03-18T20:16:50.699Z,57.44
2023-03-18T20:19:17.101Z,57.62
2023-03-18T20:21:44.127Z,57.63
2023-03-18T20:24:17.006Z,57.86
2023-03-18T20:26:43.718Z,58.11
2023-03-18T20:29:20.908Z,58.29
2023-03-18T20:31:47.606Z,58.29
2023-03-18T20:34:14.232Z,58.47
2023-03-18T20:36:41.054Z,58.48
2023-03-18T20:39:18.757Z,58.64
2023-03-18T20:41:45.480Z,58.79
2023-03-18T20:44:13.309Z,58.94
2023-03-18T20:46:42.912Z,58.97
2023-03-18T20:49:09.527Z,59.02
2023-03-18T20:51:41.049Z,59.30
2023-03-18T20:54:19.643Z,59.53
2023-03-18T20:56:46.887Z,59.64
2023-03-18T20:59:13.792Z,59.45
2023-03-18T21:01:41.185Z,59.89
2023-03-18T21:04:11.551Z,59.87
2023-03-18T21:06:38.466Z,59.88
2023-03-18T21:09:04.854Z,59.98
2023-03-18T21:11:35.096Z,60.09
2023-03-18T21:14:02.349Z,60.25
2023-03-18T21:16:28.946Z,60.35
2023-03-18T21:18:55.519Z,60.43
2023-03-18T21:21:25.633Z,60.77
2023-03-18T21:23:53.861Z,60.79
2023-03-18T21:26:21.824Z,60.75
2023-03-18T21:28:48.290Z,60.87
2023-03-18T21:31:27.900Z,61.08
2023-03-18T21:33:55.258Z,60.94
2023-03-18T21:36:22.367Z,61.13
2023-03-18T21:38:49.266Z,61.45
2023-03-18T21:41:20.221Z,61.29
2023-03-18T21:43:48.137Z,61.54
2023-03-18T21:46:19.146Z,61.63
2023-03-18T21:48:46.044Z,61.77
2023-03-18T21:51:40.614Z,61.94
2023-03-18T21:54:17.783Z,62.07
2023-03-18T21:56:44.259Z,62.00
2023-03-18T21:59:10.992Z,62.26
2023-03-18T22:01:37.517Z,62.40
2023-03-18T22:04:04.060Z,62.49
2023-03-18T22:06:30.752Z,62.65
2023-03-18T22:08:57.208Z,62.39
2023-03-18T22:11:23.745Z,62.78
2023-03-18T22:13:50.589Z,63.17
2023-03-18T22:16:18.658Z,63.14
2023-03-18T22:18:46.425Z,63.23
2023-03-18T22:21:30.881Z,63.47
2023-03-18T22:23:58.201Z,63.58
2023-03-18T22:26:24.780Z,63.55
2023-03-18T22:28:51.388Z,63.75
2023-03-18T22:31:26.231Z,63.95
2023-03-18T22:33:54.901Z,64.16
2023-03-18T22:38:48.833Z,64.73
2023-03-18T22:41:25.137Z,64.58
2023-03-18T22:43:51.751Z,65.17
2023-03-18T22:46:18.264Z,64.84
2023-03-18T22:48:44.824Z,64.85
2023-03-18T22:51:25.847Z,64.90
2023-03-18T22:53:53.703Z,65.17
2023-03-18T22:56:22.216Z,65.14
2023-03-18T22:58:48.679Z,65.22
2023-03-18T23:01:20.999Z,65.37
2023-03-18T23:03:47.853Z,65.54
2023-03-18T23:06:20.212Z,65.45
2023-03-18T23:08:47.120Z,65.58
2023-03-18T23:11:14.569Z,65.48
2023-03-18T23:13:43.313Z,65.60
2023-03-18T23:16:21.489Z,65.72
2023-03-18T23:18:48.179Z,65.79
2023-03-18T23:21:19.926Z,65.96
2023-03-18T23:23:46.539Z,66.18
2023-03-18T23:26:13.018Z,66.30
2023-03-18T23:28:44.483Z,66.18
2023-03-18T23:31:11.984Z,66.45
2023-03-18T23:33:38.752Z,66.37
2023-03-18T23:36:05.481Z,66.50
2023-03-18T23:38:31.932Z,66.31
2023-03-18T23:40:58.378Z,66.50
2023-03-18T23:43:25.646Z,66.51
2023-03-18T23:45:52.217Z,66.64
2023-03-18T23:48:18.690Z,66.80
2023-03-18T23:50:45.991Z,66.81
2023-03-18T23:53:12.510Z,66.85
2023-03-18T23:55:38.993Z,66.92
2023-03-18T23:58:05.776Z,66.91
